createdAt,value
2023-04-08T06:50:00.996Z,4.60
2023-04-08T06:52:51.571Z,4.60
2023-04-08T07:02:47.292Z,4.10
2023-04-08T07:05:16.845Z,3.90
2023-04-08T07:10:14.582Z,3.60
2023-04-08T07:15:11.811Z,3.40
2023-04-08T07:17:40.387Z,3.20
2023-04-08T07:20:09.315Z,3.20
2023-04-08T07:22:38.662Z,3.20
2023-04-08T07:25:07.440Z,3.20
2023-04-08T07:30:04.300Z,3.20
2023-04-08T07:32:32.426Z,3.10
2023-04-08T07:35:00.765Z,3.20
2023-04-08T07:37:28.942Z,3.10
2023-04-08T07:39:58.276Z,3.10
2023-04-08T07:42:26.835Z,3.20
2023-04-08T07:44:54.879Z,3.20
2023-04-08T07:49:51.394Z,3.20
2023-04-08T07:52:19.353Z,3.20
2023-04-08T07:57:17.166Z,3.30
2023-04-08T08:04:42.152Z,3.30
2023-04-08T08:07:10.504Z,3.40
2023-04-08T08:09:38.466Z,3.40
2023-04-08T08:12:06.466Z,3.40
2023-04-08T08:14:35.797Z,3.50
2023-04-08T08:17:05.036Z,3.50
2023-04-08T08:19:33.025Z,3.50
2023-04-08T08:22:01.088Z,3.30
2023-04-08T08:24:29.197Z,3.30
2023-04-08T08:26:57.753Z,3.50
2023-04-08T08:29:25.727Z,3.60
2023-04-08T08:31:55.127Z,3.60
2023-04-08T08:36:51.403Z,3.60
2023-04-08T08:39:19.328Z,3.80
2023-04-08T08:41:47.300Z,3.80
2023-04-08T08:44:15.731Z,3.90
2023-04-08T08:46:45.881Z,3.90
2023-04-08T08:49:16.072Z,3.90
2023-04-08T08:51:47.429Z,3.80
2023-04-08T08:54:16.946Z,3.90
2023-04-08T08:56:44.932Z,3.90
2023-04-08T08:59:12.843Z,4.00
2023-04-08T09:01:42.125Z,4.10
2023-04-08T09:04:17.150Z,4.20
2023-04-08T09:06:46.757Z,4.10
2023-04-08T09:09:15.531Z,4.30
2023-04-08T09:11:46.094Z,4.30
2023-04-08T09:14:21.625Z,4.30
2023-04-08T09:16:49.994Z,4.40
2023-04-08T09:19:20.070Z,4.40
2023-04-08T09:22:05.156Z,4.40
2023-04-08T09:29:34.180Z,4.50
2023-04-08T09:32:03.498Z,4.60
2023-04-08T09:34:34.479Z,4.60
2023-04-08T09:37:02.752Z,4.60
2023-04-08T09:39:31.585Z,4.70
2023-04-08T09:42:01.964Z,4.70
2023-04-08T09:44:31.209Z,4.70
2023-04-08T09:47:08.722Z,4.70
2023-04-08T09:49:43.466Z,4.80
2023-04-08T09:52:14.807Z,4.80
2023-04-08T09:54:49.066Z,4.80
2023-04-08T09:57:23.068Z,4.90
2023-04-08T09:59:58.067Z,4.90
2023-04-08T10:02:32.293Z,5.00
2023-04-08T10:05:08.145Z,5.00
2023-04-08T10:07:36.746Z,5.10
2023-04-08T10:10:05.708Z,5.10
2023-04-08T10:12:34.053Z,5.20
2023-04-08T10:15:24.930Z,5.10
2023-04-08T10:17:53.113Z,5.10
2023-04-08T10:20:53.009Z,5.10
2023-04-08T10:23:41.120Z,5.10
2023-04-08T10:26:34.750Z,5.20
2023-04-08T10:29:32.694Z,5.10
2023-04-08T10:32:01.960Z,5.20
2023-04-08T10:34:30.646Z,5.20
2023-04-08T10:37:03.684Z,5.20
2023-04-08T10:39:32.474Z,5.20
2023-04-08T10:42:04.167Z,5.20
2023-04-08T10:47:01.206Z,5.40
2023-04-08T10:49:34.749Z,5.60
2023-04-08T10:52:07.807Z,5.60
2023-04-08T10:54:35.873Z,5.80
2023-04-08T10:57:06.322Z,6.00
2023-04-08T11:02:03.494Z,6.40
2023-04-08T11:07:00.332Z,6.70
2023-04-08T11:11:57.825Z,6.70
2023-04-08T11:14:27.412Z,6.60
2023-04-08T11:19:24.365Z,6.30
2023-04-08T11:21:52.716Z,6.20
2023-04-08T11:24:22.398Z,6.20
2023-04-08T11:26:50.608Z,6.20
2023-04-08T11:29:18.720Z,6.30
2023-04-08T11:31:49.683Z,8.40
2023-04-08T11:34:23.587Z,6.30
2023-04-08T11:36:52.016Z,6.40
2023-04-08T11:39:23.336Z,6.30
2023-04-08T11:44:19.738Z,6.40
2023-04-08T11:46:57.390Z,6.50
2023-04-08T11:49:25.751Z,6.60
2023-04-08T11:51:58.998Z,6.60
2023-04-08T11:54:31.964Z,6.50
2023-04-08T11:57:00.968Z,6.60
2023-04-08T11:59:29.542Z,6.50
2023-04-08T12:02:00.013Z,7.40
2023-04-08T12:06:58.280Z,6.30
2023-04-08T12:09:27.314Z,6.40
2023-04-08T12:11:56.798Z,6.30
2023-04-08T12:14:27.662Z,6.30
2023-04-08T12:16:56.401Z,6.30
2023-04-08T12:19:25.789Z,6.30
2023-04-08T12:21:53.823Z,6.30
2023-04-08T12:24:24.880Z,6.30
2023-04-08T12:26:52.828Z,6.30
2023-04-08T12:29:21.041Z,6.30
2023-04-08T12:31:49.148Z,6.30
2023-04-08T12:34:17.964Z,6.30
2023-04-08T12:36:49.123Z,6.30
2023-04-08T12:39:17.091Z,6.20
2023-04-08T12:41:45.074Z,6.20
2023-04-08T12:44:13.225Z,6.30
2023-04-08T12:46:41.649Z,6.20
2023-04-08T12:49:09.872Z,6.20
2023-04-08T12:51:37.831Z,6.20
2023-04-08T12:54:07.258Z,6.20
2023-04-08T12:56:35.408Z,6.20
2023-04-08T12:59:03.471Z,6.20
2023-04-08T13:01:31.906Z,6.20
2023-04-08T13:06:28.733Z,6.30
2023-04-08T13:08:56.924Z,6.30
2023-04-08T13:11:26.568Z,6.30
2023-04-08T13:13:54.581Z,6.30
2023-04-08T13:21:20.946Z,6.20
2023-04-08T13:26:17.232Z,6.20
2023-04-08T13:28:56.803Z,6.20
2023-04-08T13:31:26.131Z,6.30
2023-04-08T13:33:57.577Z,6.30
2023-04-08T13:36:26.846Z,6.40
2023-04-08T13:38:54.787Z,6.40
2023-04-08T13:41:22.763Z,6.40
2023-04-08T13:43:52.115Z,6.30
2023-04-08T13:46:20.175Z,6.30
2023-04-08T13:48:48.192Z,6.30
2023-04-08T13:51:16.216Z,6.30
2023-04-08T13:56:12.516Z,6.30
2023-04-08T14:01:10.376Z,6.30
2023-04-08T14:11:03.554Z,6.30
2023-04-08T14:13:32.381Z,6.40
2023-04-08T14:16:02.313Z,6.40
2023-04-08T14:18:31.837Z,6.40
2023-04-08T14:20:59.835Z,6.50
2023-04-08T14:25:56.203Z,6.40
2023-04-08T14:28:24.207Z,6.50
2023-04-08T14:30:52.234Z,6.70
2023-04-08T14:35:50.062Z,7.10
2023-04-08T14:38:18.061Z,7.30
2023-04-08T14:40:46.239Z,7.50
2023-04-08T14:43:14.197Z,7.50
2023-04-08T14:45:42.336Z,7.70
2023-04-08T14:48:10.366Z,8.00
2023-04-08T14:55:36.406Z,7.90
2023-04-08T14:58:04.620Z,8.00
2023-04-08T15:00:32.644Z,8.00
2023-04-08T15:05:29.289Z,7.80
2023-04-08T15:07:57.286Z,7.70
2023-04-08T15:10:27.989Z,7.60
2023-04-08T15:17:52.745Z,7.40
2023-04-08T15:22:49.052Z,7.50
2023-04-08T15:27:46.765Z,7.80
2023-04-08T15:30:14.736Z,7.90
2023-04-08T15:32:42.734Z,8.10
2023-04-08T15:35:11.472Z,8.20
2023-04-08T15:40:09.746Z,8.30
2023-04-08T15:42:37.722Z,8.20
2023-04-08T15:45:07.932Z,8.20
2023-04-08T15:47:36.748Z,8.20
2023-04-08T15:50:05.147Z,8.10
2023-04-08T15:52:35.224Z,7.90
2023-04-08T15:57:32.587Z,7.60
2023-04-08T16:02:30.619Z,7.30
2023-04-08T16:04:58.656Z,7.30
2023-04-08T16:19:52.578Z,6.80
2023-04-08T16:22:20.771Z,6.80
2023-04-08T16:24:48.712Z,6.70
2023-04-08T16:27:17.040Z,6.60
2023-04-08T16:29:44.976Z,6.50
2023-04-08T16:32:13.094Z,6.60
2023-04-08T16:34:41.103Z,6.60
2023-04-08T16:37:10.472Z,6.70
2023-04-08T16:47:20.949Z,6.80
2023-04-08T16:49:49.290Z,6.90
2023-04-08T17:32:15.672Z,6.30
